sensor_id;sensor_type;location;lat;lon;timestamp;temperature;humidity
59025;DHT22;44806;48.008;13.666;2022-12-07T00:01:46;4.80;99.90
59025;DHT22;44806;48.008;13.666;2022-12-07T00:04:16;4.70;99.90
59025;DHT22;44806;48.008;13.666;2022-12-07T00:06:50;4.70;99.90
59025;DHT22;44806;48.008;13.666;2022-12-07T00:09:20;4.70;99.90
59025;DHT22;44806;48.008;13.666;2022-12-07T00:11:50;4.70;99.90
59025;DHT22;44806;48.008;13.666;2022-12-07T00:14:19;4.80;99.90
59025;DHT22;44806;48.008;13.666;2022-12-07T00:16:49;4.70;99.90
59025;DHT22;44806;48.008;13.666;2022-12-07T00:19:17;4.70;99.90
59025;DHT22;44806;48.008;13.666;2022-12-07T00:21:46;4.80;99.90
59025;DHT22;44806;48.008;13.666;2022-12-07T00:24:13;4.80;99.90
59025;DHT22;44806;48.008;13.666;2022-12-07T00:26:45;4.80;99.90
59025;DHT22;44806;48.008;13.666;2022-12-07T00:29:20;4.80;99.90
59025;DHT22;44806;48.008;13.666;2022-12-07T00:31:52;4.70;99.90
59025;DHT22;44806;48.008;13.666;2022-12-07T00:34:21;4.70;99.90
59025;DHT22;44806;48.008;13.666;2022-12-07T00:36:49;4.70;99.90
59025;DHT22;44806;48.008;13.666;2022-12-07T00:39:19;4.70;99.90
59025;DHT22;44806;48.008;13.666;2022-12-07T00:41:53;4.70;99.90
59025;DHT22;44806;48.008;13.666;2022-12-07T00:44:21;4.70;99.90
59025;DHT22;44806;48.008;13.666;2022-12-07T00:46:51;4.70;99.90
59025;DHT22;44806;48.008;13.666;2022-12-07T00:49:18;4.70;99.90
59025;DHT22;44806;48.008;13.666;2022-12-07T00:51:48;4.70;99.90
59025;DHT22;44806;48.008;13.666;2022-12-07T00:54:15;4.70;99.90
59025;DHT22;44806;48.008;13.666;2022-12-07T00:56:45;4.80;99.90
59025;DHT22;44806;48.008;13.666;2022-12-07T00:59:15;4.80;99.90
59025;DHT22;44806;48.008;13.666;2022-12-07T01:01:46;4.80;99.90
59025;DHT22;44806;48.008;13.666;2022-12-07T01:04:16;4.80;99.90
59025;DHT22;44806;48.008;13.666;2022-12-07T01:06:44;4.70;99.90
59025;DHT22;44806;48.008;13.666;2022-12-07T01:09:12;4.80;99.90
59025;DHT22;44806;48.008;13.666;2022-12-07T01:11:40;4.80;99.90
59025;DHT22;44806;48.008;13.666;2022-12-07T01:14:09;4.70;99.90
59025;DHT22;44806;48.008;13.666;2022-12-07T01:16:38;4.80;99.90
59025;DHT22;44806;48.008;13.666;2022-12-07T01:19:06;4.80;99.90
59025;DHT22;44806;48.008;13.666;2022-12-07T01:21:36;4.70;99.90
59025;DHT22;44806;48.008;13.666;2022-12-07T01:24:09;4.60;99.90
59025;DHT22;44806;48.008;13.666;2022-12-07T01:26:40;4.70;99.90
59025;DHT22;44806;48.008;13.666;2022-12-07T01:29:11;4.60;99.90
59025;DHT22;44806;48.008;13.666;2022-12-07T01:31:42;4.60;99.90
59025;DHT22;44806;48.008;13.666;2022-12-07T01:34:12;4.60;99.90
59025;DHT22;44806;48.008;13.666;2022-12-07T01:36:41;4.70;99.90
59025;DHT22;44806;48.008;13.666;2022-12-07T01:39:10;4.70;99.90
59025;DHT22;44806;48.008;13.666;2022-12-07T01:41:40;4.60;99.90
59025;DHT22;44806;48.008;13.666;2022-12-07T01:44:21;4.60;99.90
59025;DHT22;44806;48.008;13.666;2022-12-07T01:46:53;4.60;99.90
59025;DHT22;44806;48.008;13.666;2022-12-07T01:49:33;4.60;99.90
59025;DHT22;44806;48.008;13.666;2022-12-07T01:52:13;4.70;99.90
59025;DHT22;44806;48.008;13.666;2022-12-07T01:54:42;4.70;99.90
59025;DHT22;44806;48.008;13.666;2022-12-07T01:57:14;4.70;99.90
59025;DHT22;44806;48.008;13.666;2022-12-07T01:59:43;4.70;99.90
59025;DHT22;44806;48.008;13.666;2022-12-07T02:02:18;4.60;99.90
59025;DHT22;44806;48.008;13.666;2022-12-07T02:04:49;4.60;99.90
59025;DHT22;44806;48.008;13.666;2022-12-07T02:07:21;4.60;99.90
59025;DHT22;44806;48.008;13.666;2022-12-07T02:09:50;4.50;99.90
59025;DHT22;44806;48.008;13.666;2022-12-07T02:12:21;4.50;99.90
59025;DHT22;44806;48.008;13.666;2022-12-07T02:14:50;4.60;99.90
59025;DHT22;44806;48.008;13.666;2022-12-07T02:17:22;4.60;99.90
59025;DHT22;44806;48.008;13.666;2022-12-07T02:20:11;4.60;99.90
59025;DHT22;44806;48.008;13.666;2022-12-07T02:23:07;4.60;99.90
59025;DHT22;44806;48.008;13.666;2022-12-07T02:25:57;4.70;99.90
59025;DHT22;44806;48.008;13.666;2022-12-07T02:28:33;4.70;99.90
59025;DHT22;44806;48.008;13.666;2022-12-07T02:31:11;4.70;99.90
59025;DHT22;44806;48.008;13.666;2022-12-07T02:33:43;4.70;99.90
59025;DHT22;44806;48.008;13.666;2022-12-07T02:36:18;4.70;99.90
59025;DHT22;44806;48.008;13.666;2022-12-07T02:38:51;4.70;99.90
59025;DHT22;44806;48.008;13.666;2022-12-07T02:41:26;4.60;99.90
59025;DHT22;44806;48.008;13.666;2022-12-07T02:43:59;4.60;99.90
59025;DHT22;44806;48.008;13.666;2022-12-07T02:46:32;4.60;99.90
59025;DHT22;44806;48.008;13.666;2022-12-07T02:49:01;4.60;99.90
59025;DHT22;44806;48.008;13.666;2022-12-07T02:51:33;4.60;99.90
59025;DHT22;44806;48.008;13.666;2022-12-07T02:54:16;4.60;99.90
59025;DHT22;44806;48.008;13.666;2022-12-07T02:56:48;4.50;99.90
59025;DHT22;44806;48.008;13.666;2022-12-07T02:59:25;4.50;99.90
59025;DHT22;44806;48.008;13.666;2022-12-07T03:02:08;4.60;99.90
59025;DHT22;44806;48.008;13.666;2022-12-07T03:04:50;4.50;99.90
59025;DHT22;44806;48.008;13.666;2022-12-07T03:07:29;4.50;99.90
59025;DHT22;44806;48.008;13.666;2022-12-07T03:10:03;4.50;99.90
59025;DHT22;44806;48.008;13.666;2022-12-07T03:12:43;4.50;99.90
59025;DHT22;44806;48.008;13.666;2022-12-07T03:15:16;4.60;99.90
59025;DHT22;44806;48.008;13.666;2022-12-07T03:17:50;4.60;99.90
59025;DHT22;44806;48.008;13.666;2022-12-07T03:20:23;4.60;99.90
59025;DHT22;44806;48.008;13.666;2022-12-07T03:22:54;4.60;99.90
59025;DHT22;44806;48.008;13.666;2022-12-07T03:25:22;4.60;99.90
59025;DHT22;44806;48.008;13.666;2022-12-07T03:27:57;4.60;99.90
59025;DHT22;44806;48.008;13.666;2022-12-07T03:30:29;4.50;99.90
59025;DHT22;44806;48.008;13.666;2022-12-07T03:33:04;4.50;99.90
59025;DHT22;44806;48.008;13.666;2022-12-07T03:35:38;4.50;99.90
59025;DHT22;44806;48.008;13.666;2022-12-07T03:38:14;4.40;99.90
59025;DHT22;44806;48.008;13.666;2022-12-07T03:40:47;4.50;99.90
59025;DHT22;44806;48.008;13.666;2022-12-07T03:43:18;4.50;99.90
59025;DHT22;44806;48.008;13.666;2022-12-07T03:45:55;4.50;99.90
59025;DHT22;44806;48.008;13.666;2022-12-07T03:48:34;4.50;99.90
59025;DHT22;44806;48.008;13.666;2022-12-07T03:51:05;4.50;99.90
59025;DHT22;44806;48.008;13.666;2022-12-07T03:53:39;4.50;99.90
59025;DHT22;44806;48.008;13.666;2022-12-07T03:56:10;4.50;99.90
59025;DHT22;44806;48.008;13.666;2022-12-07T03:58:42;4.50;99.90
59025;DHT22;44806;48.008;13.666;2022-12-07T04:01:10;4.50;99.90
59025;DHT22;44806;48.008;13.666;2022-12-07T04:03:40;4.50;99.90
59025;DHT22;44806;48.008;13.666;2022-12-07T04:06:08;4.50;99.90
59025;DHT22;44806;48.008;13.666;2022-12-07T04:08:43;4.50;99.90
59025;DHT22;44806;48.008;13.666;2022-12-07T04:11:13;4.50;99.90
59025;DHT22;44806;48.008;13.666;2022-12-07T04:13:44;4.50;99.90
59025;DHT22;44806;48.008;13.666;2022-12-07T04:16:28;4.50;99.90
59025;DHT22;44806;48.008;13.666;2022-12-07T04:18:58;4.50;99.90
59025;DHT22;44806;48.008;13.666;2022-12-07T04:21:28;4.60;99.90
59025;DHT22;44806;48.008;13.666;2022-12-07T04:23:58;4.60;99.90
59025;DHT22;44806;48.008;13.666;2022-12-07T04:26:26;4.60;99.90
59025;DHT22;44806;48.008;13.666;2022-12-07T04:28:57;4.60;99.90
59025;DHT22;44806;48.008;13.666;2022-12-07T04:31:24;4.60;99.90
59025;DHT22;44806;48.008;13.666;2022-12-07T04:33:52;4.50;99.90
59025;DHT22;44806;48.008;13.666;2022-12-07T04:36:21;4.60;99.90
59025;DHT22;44806;48.008;13.666;2022-12-07T04:38:53;4.60;99.90
59025;DHT22;44806;48.008;13.666;2022-12-07T04:41:21;4.50;99.90
59025;DHT22;44806;48.008;13.666;2022-12-07T04:43:53;4.50;99.90
59025;DHT22;44806;48.008;13.666;2022-12-07T04:46:23;4.50;99.90
59025;DHT22;44806;48.008;13.666;2022-12-07T04:48:57;4.50;99.90
59025;DHT22;44806;48.008;13.666;2022-12-07T04:51:28;4.50;99.90
59025;DHT22;44806;48.008;13.666;2022-12-07T04:53:57;4.50;99.90
59025;DHT22;44806;48.008;13.666;2022-12-07T04:56:30;4.50;99.90
59025;DHT22;44806;48.008;13.666;2022-12-07T04:58:59;4.50;99.90
59025;DHT22;44806;48.008;13.666;2022-12-07T05:01:26;4.50;99.90
59025;DHT22;44806;48.008;13.666;2022-12-07T05:03:55;4.50;99.90
59025;DHT22;44806;48.008;13.666;2022-12-07T05:06:23;4.50;99.90
59025;DHT22;44806;48.008;13.666;2022-12-07T05:08:53;4.50;99.90
59025;DHT22;44806;48.008;13.666;2022-12-07T05:11:21;4.50;99.90
59025;DHT22;44806;48.008;13.666;2022-12-07T05:14:11;4.50;99.90
59025;DHT22;44806;48.008;13.666;2022-12-07T05:16:46;4.40;99.90
59025;DHT22;44806;48.008;13.666;2022-12-07T05:19:18;4.40;99.90
59025;DHT22;44806;48.008;13.666;2022-12-07T05:21:52;4.40;99.90
59025;DHT22;44806;48.008;13.666;2022-12-07T05:24:22;4.40;99.90
59025;DHT22;44806;48.008;13.666;2022-12-07T05:26:50;4.40;99.90
59025;DHT22;44806;48.008;13.666;2022-12-07T05:29:17;4.40;99.90
59025;DHT22;44806;48.008;13.666;2022-12-07T05:31:45;4.50;99.90
59025;DHT22;44806;48.008;13.666;2022-12-07T05:34:14;4.40;99.90
59025;DHT22;44806;48.008;13.666;2022-12-07T05:36:42;4.40;99.90
59025;DHT22;44806;48.008;13.666;2022-12-07T05:39:10;4.40;99.90
59025;DHT22;44806;48.008;13.666;2022-12-07T05:41:41;4.40;99.90
59025;DHT22;44806;48.008;13.666;2022-12-07T05:44:27;4.30;99.90
59025;DHT22;44806;48.008;13.666;2022-12-07T05:47:00;4.30;99.90
59025;DHT22;44806;48.008;13.666;2022-12-07T05:49:29;4.30;99.90
59025;DHT22;44806;48.008;13.666;2022-12-07T05:51:57;4.30;99.90
59025;DHT22;44806;48.008;13.666;2022-12-07T05:54:24;4.40;99.90
59025;DHT22;44806;48.008;13.666;2022-12-07T05:56:54;4.40;99.90
59025;DHT22;44806;48.008;13.666;2022-12-07T05:59:22;4.40;99.90
59025;DHT22;44806;48.008;13.666;2022-12-07T06:01:49;4.30;99.90
59025;DHT22;44806;48.008;13.666;2022-12-07T06:04:18;4.40;99.90
59025;DHT22;44806;48.008;13.666;2022-12-07T06:06:49;4.40;99.90
59025;DHT22;44806;48.008;13.666;2022-12-07T06:09:17;4.40;99.90
59025;DHT22;44806;48.008;13.666;2022-12-07T06:11:47;4.30;99.90
59025;DHT22;44806;48.008;13.666;2022-12-07T06:14:34;4.40;99.90
59025;DHT22;44806;48.008;13.666;2022-12-07T06:17:07;4.40;99.90
59025;DHT22;44806;48.008;13.666;2022-12-07T06:19:35;4.30;99.90
59025;DHT22;44806;48.008;13.666;2022-12-07T06:22:03;4.40;99.90
59025;DHT22;44806;48.008;13.666;2022-12-07T06:24:35;4.40;99.90
59025;DHT22;44806;48.008;13.666;2022-12-07T06:27:03;4.40;99.90
59025;DHT22;44806;48.008;13.666;2022-12-07T06:29:34;4.50;99.90
59025;DHT22;44806;48.008;13.666;2022-12-07T06:32:16;4.40;99.90
59025;DHT22;44806;48.008;13.666;2022-12-07T06:34:44;4.40;99.90
59025;DHT22;44806;48.008;13.666;2022-12-07T06:37:13;4.30;99.90
59025;DHT22;44806;48.008;13.666;2022-12-07T06:39:43;4.40;99.90
59025;DHT22;44806;48.008;13.666;2022-12-07T06:42:12;4.40;99.90
59025;DHT22;44806;48.008;13.666;2022-12-07T06:44:41;4.40;99.90
59025;DHT22;44806;48.008;13.666;2022-12-07T06:47:14;4.40;99.90
59025;DHT22;44806;48.008;13.666;2022-12-07T06:49:44;4.40;99.90
59025;DHT22;44806;48.008;13.666;2022-12-07T06:52:16;4.40;99.90
59025;DHT22;44806;48.008;13.666;2022-12-07T06:54:44;4.40;99.90
59025;DHT22;44806;48.008;13.666;2022-12-07T06:57:14;4.40;99.90
59025;DHT22;44806;48.008;13.666;2022-12-07T06:59:43;4.40;99.90
59025;DHT22;44806;48.008;13.666;2022-12-07T07:02:11;4.40;99.90
59025;DHT22;44806;48.008;13.666;2022-12-07T07:04:39;4.50;99.90
59025;DHT22;44806;48.008;13.666;2022-12-07T07:07:11;4.50;99.90
59025;DHT22;44806;48.008;13.666;2022-12-07T07:09:39;4.50;99.90
59025;DHT22;44806;48.008;13.666;2022-12-07T07:12:07;4.40;99.90
59025;DHT22;44806;48.008;13.666;2022-12-07T07:14:34;4.40;99.90
59025;DHT22;44806;48.008;13.666;2022-12-07T07:17:07;4.40;99.90
59025;DHT22;44806;48.008;13.666;2022-12-07T07:19:34;4.40;99.90
59025;DHT22;44806;48.008;13.666;2022-12-07T07:22:03;4.40;99.90
59025;DHT22;44806;48.008;13.666;2022-12-07T07:24:31;4.40;99.90
59025;DHT22;44806;48.008;13.666;2022-12-07T07:27:01;4.30;99.90
59025;DHT22;44806;48.008;13.666;2022-12-07T07:29:32;4.30;99.90
59025;DHT22;44806;48.008;13.666;2022-12-07T07:32:00;4.20;99.90
59025;DHT22;44806;48.008;13.666;2022-12-07T07:34:29;4.20;99.90
59025;DHT22;44806;48.008;13.666;2022-12-07T07:36:57;4.30;99.90
59025;DHT22;44806;48.008;13.666;2022-12-07T07:39:25;4.30;99.90
59025;DHT22;44806;48.008;13.666;2022-12-07T07:41:56;4.30;99.90
59025;DHT22;44806;48.008;13.666;2022-12-07T07:44:26;4.30;99.90
59025;DHT22;44806;48.008;13.666;2022-12-07T07:46:56;4.20;99.90
59025;DHT22;44806;48.008;13.666;2022-12-07T07:49:23;4.30;99.90
59025;DHT22;44806;48.008;13.666;2022-12-07T07:51:52;4.30;99.90
59025;DHT22;44806;48.008;13.666;2022-12-07T07:54:21;4.30;99.90
59025;DHT22;44806;48.008;13.666;2022-12-07T07:56:49;4.40;99.90
59025;DHT22;44806;48.008;13.666;2022-12-07T07:59:18;4.30;99.90
59025;DHT22;44806;48.008;13.666;2022-12-07T08:01:46;4.30;99.90
59025;DHT22;44806;48.008;13.666;2022-12-07T08:04:14;4.30;99.90
59025;DHT22;44806;48.008;13.666;2022-12-07T08:06:42;4.30;99.90
59025;DHT22;44806;48.008;13.666;2022-12-07T08:09:12;4.20;99.90
59025;DHT22;44806;48.008;13.666;2022-12-07T08:11:44;4.20;99.90
59025;DHT22;44806;48.008;13.666;2022-12-07T08:14:13;4.30;99.90
59025;DHT22;44806;48.008;13.666;2022-12-07T08:16:40;4.30;99.90
59025;DHT22;44806;48.008;13.666;2022-12-07T08:19:11;4.40;99.90
59025;DHT22;44806;48.008;13.666;2022-12-07T08:21:41;4.50;99.90
59025;DHT22;44806;48.008;13.666;2022-12-07T08:24:13;4.30;99.90
59025;DHT22;44806;48.008;13.666;2022-12-07T08:26:43;4.30;99.90
59025;DHT22;44806;48.008;13.666;2022-12-07T08:29:11;4.30;99.90
59025;DHT22;44806;48.008;13.666;2022-12-07T08:31:42;4.30;99.90
59025;DHT22;44806;48.008;13.666;2022-12-07T08:34:10;4.30;99.90
59025;DHT22;44806;48.008;13.666;2022-12-07T08:36:38;4.30;99.90
59025;DHT22;44806;48.008;13.666;2022-12-07T08:39:08;4.40;99.90
59025;DHT22;44806;48.008;13.666;2022-12-07T08:41:38;4.40;99.90
59025;DHT22;44806;48.008;13.666;2022-12-07T08:44:08;4.40;99.90
59025;DHT22;44806;48.008;13.666;2022-12-07T08:46:38;4.40;99.90
59025;DHT22;44806;48.008;13.666;2022-12-07T08:49:10;4.50;99.90
59025;DHT22;44806;48.008;13.666;2022-12-07T08:51:41;4.50;99.90
59025;DHT22;44806;48.008;13.666;2022-12-07T08:54:12;4.50;99.90
59025;DHT22;44806;48.008;13.666;2022-12-07T08:56:46;4.50;99.90
59025;DHT22;44806;48.008;13.666;2022-12-07T08:59:18;4.50;99.90
59025;DHT22;44806;48.008;13.666;2022-12-07T09:01:46;4.50;99.90
59025;DHT22;44806;48.008;13.666;2022-12-07T09:04:14;4.50;99.90
59025;DHT22;44806;48.008;13.666;2022-12-07T09:06:45;4.60;99.90
59025;DHT22;44806;48.008;13.666;2022-12-07T09:09:15;4.60;99.90
59025;DHT22;44806;48.008;13.666;2022-12-07T09:11:45;4.70;99.90
59025;DHT22;44806;48.008;13.666;2022-12-07T09:14:12;4.60;99.90
59025;DHT22;44806;48.008;13.666;2022-12-07T09:16:46;4.60;99.90
59025;DHT22;44806;48.008;13.666;2022-12-07T09:19:13;4.50;99.90
59025;DHT22;44806;48.008;13.666;2022-12-07T09:21:43;4.50;99.90
59025;DHT22;44806;48.008;13.666;2022-12-07T09:24:12;4.50;99.90
59025;DHT22;44806;48.008;13.666;2022-12-07T09:26:45;4.50;99.90
59025;DHT22;44806;48.008;13.666;2022-12-07T09:29:13;4.60;99.90
59025;DHT22;44806;48.008;13.666;2022-12-07T09:31:44;4.60;99.90
59025;DHT22;44806;48.008;13.666;2022-12-07T09:34:12;4.70;99.90
59025;DHT22;44806;48.008;13.666;2022-12-07T09:36:40;4.60;99.90
59025;DHT22;44806;48.008;13.666;2022-12-07T09:39:15;4.60;99.90
59025;DHT22;44806;48.008;13.666;2022-12-07T09:41:45;4.60;99.90
59025;DHT22;44806;48.008;13.666;2022-12-07T09:44:20;4.80;99.90
59025;DHT22;44806;48.008;13.666;2022-12-07T09:46:50;4.70;99.90
59025;DHT22;44806;48.008;13.666;2022-12-07T09:49:27;4.80;99.90
59025;DHT22;44806;48.008;13.666;2022-12-07T09:52:02;4.80;99.90
59025;DHT22;44806;48.008;13.666;2022-12-07T09:54:31;4.90;99.90
59025;DHT22;44806;48.008;13.666;2022-12-07T09:57:03;4.90;99.90
59025;DHT22;44806;48.008;13.666;2022-12-07T09:59:36;5.00;99.90
59025;DHT22;44806;48.008;13.666;2022-12-07T10:02:28;5.00;99.90
59025;DHT22;44806;48.008;13.666;2022-12-07T10:05:01;5.00;99.90
59025;DHT22;44806;48.008;13.666;2022-12-07T10:07:29;5.00;99.90
59025;DHT22;44806;48.008;13.666;2022-12-07T10:09:57;5.00;99.90
59025;DHT22;44806;48.008;13.666;2022-12-07T10:12:26;5.00;99.90
59025;DHT22;44806;48.008;13.666;2022-12-07T10:14:57;5.10;99.90
59025;DHT22;44806;48.008;13.666;2022-12-07T10:17:35;5.20;99.90
59025;DHT22;44806;48.008;13.666;2022-12-07T10:20:27;5.10;99.90
59025;DHT22;44806;48.008;13.666;2022-12-07T10:22:58;5.20;99.90
59025;DHT22;44806;48.008;13.666;2022-12-07T10:25:32;5.20;99.90
59025;DHT22;44806;48.008;13.666;2022-12-07T10:28:11;5.20;99.90
59025;DHT22;44806;48.008;13.666;2022-12-07T10:30:55;5.10;99.90
59025;DHT22;44806;48.008;13.666;2022-12-07T10:33:30;5.10;99.90
59025;DHT22;44806;48.008;13.666;2022-12-07T10:35:59;5.20;99.90
59025;DHT22;44806;48.008;13.666;2022-12-07T10:38:29;5.20;99.90
59025;DHT22;44806;48.008;13.666;2022-12-07T10:41:05;5.20;99.90
59025;DHT22;44806;48.008;13.666;2022-12-07T10:43:38;5.30;99.90
59025;DHT22;44806;48.008;13.666;2022-12-07T10:52:20;5.20;99.90
59025;DHT22;44806;48.008;13.666;2022-12-07T10:55:05;5.20;99.90
59025;DHT22;44806;48.008;13.666;2022-12-07T10:57:45;5.30;99.90
59025;DHT22;44806;48.008;13.666;2022-12-07T11:00:22;5.30;99.90
59025;DHT22;44806;48.008;13.666;2022-12-07T11:03:27;5.40;99.90
59025;DHT22;44806;48.008;13.666;2022-12-07T11:06:01;5.30;99.90
59025;DHT22;44806;48.008;13.666;2022-12-07T11:08:44;5.20;99.90
59025;DHT22;44806;48.008;13.666;2022-12-07T11:11:16;5.20;99.90
59025;DHT22;44806;48.008;13.666;2022-12-07T11:13:51;5.20;99.90
59025;DHT22;44806;48.008;13.666;2022-12-07T11:16:39;5.20;99.90
59025;DHT22;44806;48.008;13.666;2022-12-07T11:19:24;5.20;99.90
59025;DHT22;44806;48.008;13.666;2022-12-07T11:21:57;5.20;99.90
59025;DHT22;44806;48.008;13.666;2022-12-07T11:24:31;5.20;99.90
59025;DHT22;44806;48.008;13.666;2022-12-07T11:27:12;5.10;99.90
59025;DHT22;44806;48.008;13.666;2022-12-07T11:30:08;5.20;99.90
59025;DHT22;44806;48.008;13.666;2022-12-07T11:32:51;5.20;99.90
59025;DHT22;44806;48.008;13.666;2022-12-07T11:35:34;5.20;99.90
59025;DHT22;44806;48.008;13.666;2022-12-07T11:38:12;5.30;99.90
59025;DHT22;44806;48.008;13.666;2022-12-07T11:40:44;5.30;99.90
59025;DHT22;44806;48.008;13.666;2022-12-07T11:43:19;5.30;99.90
59025;DHT22;44806;48.008;13.666;2022-12-07T11:45:56;5.30;99.90
59025;DHT22;44806;48.008;13.666;2022-12-07T11:48:35;5.30;99.90
59025;DHT22;44806;48.008;13.666;2022-12-07T11:51:07;5.20;99.90
59025;DHT22;44806;48.008;13.666;2022-12-07T11:53:42;5.20;99.90
59025;DHT22;44806;48.008;13.666;2022-12-07T11:56:13;5.30;99.90
59025;DHT22;44806;48.008;13.666;2022-12-07T11:58:49;5.40;99.90
59025;DHT22;44806;48.008;13.666;2022-12-07T12:01:33;5.40;99.90
59025;DHT22;44806;48.008;13.666;2022-12-07T12:04:13;5.40;99.90
59025;DHT22;44806;48.008;13.666;2022-12-07T12:06:48;5.30;99.90
59025;DHT22;44806;48.008;13.666;2022-12-07T12:09:18;5.30;99.90
59025;DHT22;44806;48.008;13.666;2022-12-07T12:12:13;5.30;99.90
59025;DHT22;44806;48.008;13.666;2022-12-07T12:14:53;5.40;99.90
59025;DHT22;44806;48.008;13.666;2022-12-07T12:17:51;5.40;99.90
59025;DHT22;44806;48.008;13.666;2022-12-07T12:20:27;5.40;99.90
59025;DHT22;44806;48.008;13.666;2022-12-07T12:23:00;5.40;99.90
59025;DHT22;44806;48.008;13.666;2022-12-07T12:25:34;5.40;99.90
59025;DHT22;44806;48.008;13.666;2022-12-07T12:28:03;5.40;99.90
59025;DHT22;44806;48.008;13.666;2022-12-07T12:30:34;5.40;99.90
59025;DHT22;44806;48.008;13.666;2022-12-07T12:33:06;5.40;99.90
59025;DHT22;44806;48.008;13.666;2022-12-07T12:35:44;5.40;99.90
59025;DHT22;44806;48.008;13.666;2022-12-07T12:38:31;5.50;99.90
59025;DHT22;44806;48.008;13.666;2022-12-07T12:41:01;5.50;99.90
59025;DHT22;44806;48.008;13.666;2022-12-07T12:43:48;5.40;99.90
59025;DHT22;44806;48.008;13.666;2022-12-07T12:46:50;5.40;99.90
59025;DHT22;44806;48.008;13.666;2022-12-07T12:49:54;5.40;99.90
59025;DHT22;44806;48.008;13.666;2022-12-07T12:53:11;5.40;99.90
59025;DHT22;44806;48.008;13.666;2022-12-07T12:59:29;5.30;99.90
59025;DHT22;44806;48.008;13.666;2022-12-07T13:02:16;5.30;99.90
59025;DHT22;44806;48.008;13.666;2022-12-07T13:04:59;5.30;99.90
59025;DHT22;44806;48.008;13.666;2022-12-07T13:07:52;5.30;99.90
59025;DHT22;44806;48.008;13.666;2022-12-07T13:13:33;5.40;99.90
59025;DHT22;44806;48.008;13.666;2022-12-07T13:22:58;5.30;99.90
59025;DHT22;44806;48.008;13.666;2022-12-07T13:25:40;5.30;99.90
59025;DHT22;44806;48.008;13.666;2022-12-07T13:28:17;5.30;99.90
59025;DHT22;44806;48.008;13.666;2022-12-07T13:30:54;5.30;99.90
59025;DHT22;44806;48.008;13.666;2022-12-07T13:33:28;5.30;99.90
59025;DHT22;44806;48.008;13.666;2022-12-07T13:36:02;5.40;99.90
59025;DHT22;44806;48.008;13.666;2022-12-07T13:38:35;5.40;99.90
59025;DHT22;44806;48.008;13.666;2022-12-07T13:41:14;5.40;99.90
59025;DHT22;44806;48.008;13.666;2022-12-07T13:43:50;5.40;99.90
59025;DHT22;44806;48.008;13.666;2022-12-07T13:46:29;5.40;99.90
59025;DHT22;44806;48.008;13.666;2022-12-07T13:48:58;5.40;99.90
59025;DHT22;44806;48.008;13.666;2022-12-07T13:51:29;5.40;99.90
59025;DHT22;44806;48.008;13.666;2022-12-07T13:54:12;5.40;99.90
59025;DHT22;44806;48.008;13.666;2022-12-07T13:56:43;5.40;99.90
59025;DHT22;44806;48.008;13.666;2022-12-07T13:59:17;5.40;99.90
59025;DHT22;44806;48.008;13.666;2022-12-07T14:01:55;5.30;99.90
59025;DHT22;44806;48.008;13.666;2022-12-07T14:04:40;5.40;99.90
59025;DHT22;44806;48.008;13.666;2022-12-07T14:07:22;5.40;99.90
59025;DHT22;44806;48.008;13.666;2022-12-07T14:10:00;5.30;99.90
59025;DHT22;44806;48.008;13.666;2022-12-07T14:12:29;5.40;99.90
59025;DHT22;44806;48.008;13.666;2022-12-07T14:14:57;5.40;99.90
59025;DHT22;44806;48.008;13.666;2022-12-07T14:17:27;5.30;99.90
59025;DHT22;44806;48.008;13.666;2022-12-07T14:19:55;5.30;99.90
59025;DHT22;44806;48.008;13.666;2022-12-07T14:22:28;5.30;99.90
59025;DHT22;44806;48.008;13.666;2022-12-07T14:25:00;5.30;99.90
59025;DHT22;44806;48.008;13.666;2022-12-07T14:27:32;5.20;99.90
59025;DHT22;44806;48.008;13.666;2022-12-07T14:30:02;5.30;99.90
59025;DHT22;44806;48.008;13.666;2022-12-07T14:32:31;5.30;99.90
59025;DHT22;44806;48.008;13.666;2022-12-07T14:35:01;5.30;99.90
59025;DHT22;44806;48.008;13.666;2022-12-07T14:37:30;5.30;99.90
59025;DHT22;44806;48.008;13.666;2022-12-07T14:39:57;5.30;99.90
59025;DHT22;44806;48.008;13.666;2022-12-07T14:42:27;5.30;99.90
59025;DHT22;44806;48.008;13.666;2022-12-07T14:44:58;5.30;99.90
59025;DHT22;44806;48.008;13.666;2022-12-07T14:47:26;5.30;99.90
59025;DHT22;44806;48.008;13.666;2022-12-07T14:49:54;5.20;99.90
59025;DHT22;44806;48.008;13.666;2022-12-07T14:52:24;5.20;99.90
59025;DHT22;44806;48.008;13.666;2022-12-07T14:54:53;5.10;99.90
59025;DHT22;44806;48.008;13.666;2022-12-07T14:57:20;5.10;99.90
59025;DHT22;44806;48.008;13.666;2022-12-07T14:59:47;5.10;99.90
59025;DHT22;44806;48.008;13.666;2022-12-07T15:02:15;5.20;99.90
59025;DHT22;44806;48.008;13.666;2022-12-07T15:04:42;5.10;99.90
59025;DHT22;44806;48.008;13.666;2022-12-07T15:07:17;5.10;99.90
59025;DHT22;44806;48.008;13.666;2022-12-07T15:09:45;5.10;99.90
59025;DHT22;44806;48.008;13.666;2022-12-07T15:12:12;5.10;99.90
59025;DHT22;44806;48.008;13.666;2022-12-07T15:14:39;5.10;99.90
59025;DHT22;44806;48.008;13.666;2022-12-07T15:17:09;5.10;99.90
59025;DHT22;44806;48.008;13.666;2022-12-07T15:19:37;5.10;99.90
59025;DHT22;44806;48.008;13.666;2022-12-07T15:22:07;5.10;99.90
59025;DHT22;44806;48.008;13.666;2022-12-07T15:24:38;5.10;99.90
59025;DHT22;44806;48.008;13.666;2022-12-07T15:27:05;5.10;99.90
59025;DHT22;44806;48.008;13.666;2022-12-07T15:29:32;5.10;99.90
59025;DHT22;44806;48.008;13.666;2022-12-07T15:31:59;5.20;99.90
59025;DHT22;44806;48.008;13.666;2022-12-07T15:34:26;5.20;99.90
59025;DHT22;44806;48.008;13.666;2022-12-07T15:36:54;5.20;99.90
59025;DHT22;44806;48.008;13.666;2022-12-07T15:39:21;5.20;99.90
59025;DHT22;44806;48.008;13.666;2022-12-07T15:41:50;5.20;99.90
59025;DHT22;44806;48.008;13.666;2022-12-07T15:44:18;5.20;99.90
59025;DHT22;44806;48.008;13.666;2022-12-07T15:47:02;5.20;99.90
59025;DHT22;44806;48.008;13.666;2022-12-07T15:49:30;5.30;99.90
59025;DHT22;44806;48.008;13.666;2022-12-07T15:51:57;5.20;99.90
59025;DHT22;44806;48.008;13.666;2022-12-07T15:54:26;5.20;99.90
59025;DHT22;44806;48.008;13.666;2022-12-07T15:56:55;5.20;99.90
59025;DHT22;44806;48.008;13.666;2022-12-07T15:59:22;5.10;99.90
59025;DHT22;44806;48.008;13.666;2022-12-07T16:01:49;5.00;99.90
59025;DHT22;44806;48.008;13.666;2022-12-07T16:04:17;5.00;99.90
59025;DHT22;44806;48.008;13.666;2022-12-07T16:06:44;5.00;99.90
59025;DHT22;44806;48.008;13.666;2022-12-07T16:09:12;5.10;99.90
59025;DHT22;44806;48.008;13.666;2022-12-07T16:11:39;5.00;99.90
59025;DHT22;44806;48.008;13.666;2022-12-07T16:14:07;5.00;99.90
59025;DHT22;44806;48.008;13.666;2022-12-07T16:16:34;5.00;99.90
59025;DHT22;44806;48.008;13.666;2022-12-07T16:19:01;5.00;99.90
59025;DHT22;44806;48.008;13.666;2022-12-07T16:21:29;5.00;99.90
59025;DHT22;44806;48.008;13.666;2022-12-07T16:23:57;5.00;99.90